• Join FlightAware (Why Join?)
  • Login
  • US Flag 
06:54AM EDT


 

Airport Tracker/Info


-or-


 

Live Flight TrackerFlight Track Log ✈ N465TP ✈ 21-Oct-2013 ✈ KCOD - KUDD

Flight Track Log - Related Links

Times and Time Zones

All times are in EDT time to prevent confusion due to time zone crossing. See the N465TP flight status page for this flight to view local times or setup timezone preferences in your user account.

Time Position Orientation Groundspeed Altitude Reporting Facility
EDT Latitude Longitude Course Direction KTS MPH feet Rate Location/Type
09:20AM 44.4528 -109.1028 209° Southwest 150 173 10,000  Level Salt Lake Center
09:21AM 44.4131 -109.1333 209° Southwest 158 182 11,500 1,320 Climbing Salt Lake Center
09:22AM 44.3700 -109.1644 207° Southwest 166 191 12,800 1,140 Climbing Salt Lake Center
09:23AM 44.3236 -109.1978 207° Southwest 180 207 13,800 1,020 Climbing Salt Lake Center
09:24AM 44.2744 -109.2356 209° Southwest 195 224 14,900 900 Climbing Salt Lake Center
09:25AM 44.2239 -109.2733 208° Southwest 201 231 15,700 1,140 Climbing Salt Lake Center
09:26AM 44.1617 -109.3192 208° Southwest 210 242 17,300 1,380 Climbing Salt Lake Center
09:27AM 44.1086 -109.3600 209° Southwest 215 247 18,600 1,140 Climbing Salt Lake Center
09:28AM 44.0567 -109.4008 209° Southwest 215 247 19,700 1,080 Climbing Salt Lake Center
09:29AM 44.0011 -109.4422 208° Southwest 222 255 20,800 1,020 Climbing Salt Lake Center
09:30AM 43.9492 -109.4814 208° Southwest 227 261 21,800 960 Climbing Salt Lake Center
09:31AM 43.8858 -109.5275 208° Southwest 231 266 22,800 1,020 Climbing Salt Lake Center
09:32AM 43.8300 -109.5708 209° Southwest 240 276 23,900 1,080 Climbing Salt Lake Center
09:33AM 43.7728 -109.6136 208° Southwest 243 280 25,000 1,080 Climbing Salt Lake Center
09:34AM 43.7053 -109.6647 209° Southwest 246 283 26,200 1,020 Climbing Salt Lake Center
09:35AM 43.6464 -109.7097 209° Southwest 249 287 27,100 780 Climbing Salt Lake Center
09:36AM 43.5861 -109.7528 207° Southwest 253 291 27,800 420 Climbing Salt Lake Center
09:37AM 43.5106 -109.8081 208° Southwest 269 310 28,000 60 Climbing Salt Lake Center
09:38AM 43.4422 -109.8589 208° Southwest 285 328 28,000  Level Salt Lake Center
09:39AM 43.3617 -109.9175 208° Southwest 292 336 28,000  Level Salt Lake Center
09:40AM 43.2914 -109.9683 208° Southwest 296 341 28,000  Level Salt Lake Center
09:41AM 43.2225 -110.0211 209° Southwest 294 338 28,000  Level Salt Lake Center
09:42AM 43.1428 -110.0797 208° Southwest 292 336 28,000  Level Salt Lake Center
09:43AM 43.0739 -110.1281 207° Southwest 291 335 28,000  Level Salt Lake Center
09:44AM 43.0050 -110.1772 208° Southwest 291 335 28,000  Level Salt Lake Center
09:45AM 42.9244 -110.2369 209° Southwest 293 337 28,000  Level Salt Lake Center
09:46AM 42.8564 -110.2847 207° Southwest 289 333 28,000  Level Salt Lake Center
09:47AM 42.7875 -110.3347 208° Southwest 291 335 28,000 -60 Level Salt Lake Center
09:48AM 42.7094 -110.3894 207° Southwest 290 334 27,900  Descending Salt Lake Center
09:49AM 42.6414 -110.4375 207° Southwest 288 331 28,000  Climbing Salt Lake Center
09:50AM 42.5608 -110.4967 208° Southwest 293 337 28,000 -60 Level Salt Lake Center
09:51AM 42.4922 -110.5444 207° Southwest 292 336 27,900  Descending Salt Lake Center
09:52AM 42.4236 -110.5925 207° Southwest 290 334 28,000  Climbing Salt Lake Center
09:53AM 42.3444 -110.6486 208° Southwest 289 333 28,000 -60 Level Salt Lake Center
09:54AM 42.2753 -110.6964 207° Southwest 292 336 27,900  Descending Salt Lake Center
09:55AM 42.2075 -110.7453 208° Southwest 290 334 28,000  Climbing Salt Lake Center
09:56AM 42.1244 -110.8028 207° Southwest 291 335 28,000  Level Salt Lake Center
09:57AM 42.0589 -110.8486 207° Southwest 290 334 28,000  Level Salt Lake Center
09:58AM 41.9792 -110.9047 208° Southwest 290 334 28,000  Level Salt Lake Center
09:59AM 41.9103 -110.9517 207° Southwest 289 333 28,000  Level Salt Lake Center
10:00AM 41.8400 -111.0011 208° Southwest 286 329 28,000  Level Salt Lake Center
10:01AM 41.7694 -111.0497 207° Southwest 287 330 28,000  Level Salt Lake Center
10:02AM 41.6989 -111.0978 207° Southwest 285 328 28,000  Level Salt Lake Center
10:03AM 41.6286 -111.1467 207° Southwest 285 328 28,000  Level Salt Lake Center
10:04AM 41.5581 -111.1956 207° Southwest 285 328 28,000  Level Salt Lake Center
10:05AM 41.4878 -111.2433 207° Southwest 284 327 28,000  Level Salt Lake Center
10:06AM 41.4047 -111.3006 207° Southwest 281 323 28,000  Level Salt Lake Center
10:07AM 41.3356 -111.3475 207° Southwest 279 321 28,000  Level Salt Lake Center
10:08AM 41.2656 -111.3947 207° Southwest 280 322 28,000  Level Salt Lake Center
10:09AM 41.1969 -111.4419 207° Southwest 278 320 28,000  Level Salt Lake Center
10:10AM 41.1278 -111.4892 207° Southwest 279 321 28,000  Level Salt Lake Center
10:11AM 41.0581 -111.5364 207° Southwest 279 321 28,000  Level Salt Lake Center
10:12AM 40.9892 -111.5831 207° Southwest 276 318 28,000  Level Salt Lake Center
10:13AM 40.9194 -111.6283 206° Southwest 277 319 28,000  Level Salt Lake Center
10:15AM 40.8500 -111.6750 207° Southwest 278 320 28,000  Level Salt Lake Center
10:16AM 40.7808 -111.7208 207° Southwest 274 315 28,000  Level Salt Lake Center
10:17AM 40.7111 -111.7678 207° Southwest 280 322 28,000  Level Salt Lake Center
10:18AM 40.6417 -111.8136 207° Southwest 278 320 28,000  Level Salt Lake Center
10:19AM 40.5733 -111.8597 207° Southwest 276 318 28,000  Level Salt Lake Center
10:20AM 40.4903 -111.9144 207° Southwest 278 320 28,000  Level Salt Lake Center
10:21AM 40.4214 -111.9608 207° Southwest 279 321 28,000  Level Salt Lake Center
10:22AM 40.3528 -112.0064 207° Southwest 277 319 28,000  Level Salt Lake Center
10:23AM 40.2839 -112.0522 207° Southwest 277 319 28,000  Level Salt Lake Center
10:24AM 40.2153 -112.0961 206° Southwest 277 319 28,000  Level Salt Lake Center
10:25AM 40.1469 -112.1422 207° Southwest 275 316 28,000  Level Salt Lake Center
10:26AM 40.0775 -112.1869 206° Southwest 278 320 28,000  Level Salt Lake Center
10:27AM 40.0086 -112.2319 207° Southwest 278 320 28,000  Level Salt Lake Center
10:28AM 39.9386 -112.2764 206° Southwest 278 320 28,000  Level Salt Lake Center
10:29AM 39.8550 -112.3314 207° Southwest 279 321 28,000  Level Salt Lake Center
10:30AM 39.7861 -112.3764 207° Southwest 277 319 28,000  Level Salt Lake Center
10:31AM 39.7172 -112.4206 206° Southwest 277 319 28,000  Level Salt Lake Center
10:32AM 39.6489 -112.4653 207° Southwest 275 316 28,000  Level Salt Lake Center
10:33AM 39.5803 -112.5103 207° Southwest 277 319 28,000  Level Salt Lake Center
10:34AM 39.5111 -112.5544 206° Southwest 277 319 28,000  Level Salt Lake Center
10:35AM 39.4422 -112.5981 206° Southwest 275 316 28,000  Level Salt Lake Center
10:36AM 39.3728 -112.6383 204° Southwest 275 316 28,000  Level Salt Lake Center
10:37AM 39.2897 -112.6911 206° Southwest 279 321 28,000  Level Salt Lake Center
10:38AM 39.2214 -112.7347 206° Southwest 277 319 28,000  Level Salt Lake Center
10:39AM 39.1525 -112.7825 208° Southwest 279 321 28,000  Level Salt Lake Center
10:40AM 39.0825 -112.8250 205° Southwest 278 320 28,000  Level Salt Lake Center
10:41AM 39.0128 -112.8694 206° Southwest 280 322 28,000  Level Salt Lake Center
10:42AM 38.9436 -112.9139 207° Southwest 280 322 28,000  Level Salt Lake Center
10:43AM 38.8742 -112.9556 205° Southwest 278 320 28,000  Level Salt Lake Center
10:44AM 38.7906 -113.0075 206° Southwest 279 321 28,000  Level Salt Lake Center
10:45AM 38.7219 -113.0508 206° Southwest 277 319 28,000  Level Salt Lake Center
10:46AM 38.6519 -113.0933 205° Southwest 279 321 28,000  Level Salt Lake Center
10:47AM 38.5833 -113.1375 207° Southwest 278 320 28,000  Level Salt Lake Center
10:48AM 38.5131 -113.1808 206° Southwest 281 323 28,000  Level Salt Lake Center
10:49AM 38.4436 -113.2244 206° Southwest 280 322 28,000  Level Salt Lake Center
10:50AM 38.3728 -113.2681 206° Southwest 283 326 28,000  Level Salt Lake Center
10:51AM 38.2900 -113.3192 206° Southwest 278 320 28,000  Level Salt Lake Center
10:52AM 38.2192 -113.3622 206° Southwest 282 325 28,000  Level Salt Lake Center
10:53AM 38.1489 -113.4058 206° Southwest 282 325 28,000  Level Salt Lake Center
10:54AM 38.0794 -113.4481 206° Southwest 279 321 28,000  Level Salt Lake Center
10:56AM 38.0108 -113.4919 207° Southwest 278 320 28,000  Level Salt Lake Center
10:57AM 37.9406 -113.5344 206° Southwest 280 322 28,000  Level Salt Lake Center
10:58AM 37.8575 -113.5847 206° Southwest 279 321 28,000  Level Salt Lake Center
10:59AM 37.7878 -113.6272 206° Southwest 278 320 28,000  Level Salt Lake Center
11:00AM 37.7178 -113.6689 205° Southwest 279 321 28,000  Level Salt Lake Center
11:01AM 37.6489 -113.7117 206° Southwest 278 320 28,000  Level Salt Lake Center
11:01AM 37.6069 -113.7364 205° Southwest 279 321 28,000  Level Los Angeles Center
11:02AM 37.5350 -113.7775 204° Southwest 286 329 28,000  Level Los Angeles Center
11:03AM 37.4519 -113.8264 205° Southwest 277 319 28,000  Level Los Angeles Center
11:04AM 37.3828 -113.8678 205° Southwest 276 318 28,000  Level Los Angeles Center
11:05AM 37.3142 -113.9103 206° Southwest 276 318 28,000  Level Los Angeles Center
11:06AM 37.2478 -113.9478 204° Southwest 278 320 28,000  Level Los Angeles Center
11:07AM 37.1658 -113.9972 206° Southwest 273 314 28,000  Level Los Angeles Center
11:09AM 37.0958 -114.0381 205° Southwest 277 319 28,000  Level Los Angeles Center
11:10AM 37.0283 -114.0781 205° Southwest 270 311 28,000  Level Los Angeles Center
11:11AM 36.9581 -114.1192 205° Southwest 276 318 28,000  Level Los Angeles Center
11:12AM 36.8764 -114.1686 206° Southwest 272 313 28,000  Level Los Angeles Center
11:13AM 36.8075 -114.2089 205° Southwest 272 313 28,000  Level Los Angeles Center
11:14AM 36.7392 -114.2494 205° Southwest 271 312 28,000  Level Los Angeles Center
11:15AM 36.6583 -114.2978 206° Southwest 268 308 28,000  Level Los Angeles Center
11:16AM 36.5903 -114.3378 205° Southwest 270 311 28,000  Level Los Angeles Center
11:17AM 36.5217 -114.3778 205° Southwest 270 311 28,000  Level Los Angeles Center
11:19AM 36.3850 -114.4567 205° Southwest 270 311 28,000  Level Los Angeles Center
11:20AM 36.3194 -114.4956 206° Southwest 265 305 28,000  Level Los Angeles Center
11:21AM 36.2511 -114.5356 205° Southwest 266 306 28,000  Level Los Angeles Center
11:22AM 36.1689 -114.5825 205° Southwest 270 311 28,000  Level Los Angeles Center
11:23AM 36.1003 -114.6222 205° Southwest 271 312 28,000  Level Los Angeles Center
11:24AM 36.0311 -114.6622 205° Southwest 273 314 28,000  Level Los Angeles Center
11:25AM 35.9639 -114.7014 205° Southwest 269 310 28,000  Level Los Angeles Center
11:26AM 35.8947 -114.7414 205° Southwest 272 313 28,000  Level Los Angeles Center
11:28AM 35.8139 -114.7875 205° Southwest 268 308 28,000  Level Los Angeles Center
11:29AM 35.7458 -114.8283 206° Southwest 270 311 28,000  Level Los Angeles Center
11:30AM 35.6656 -114.8725 204° Southwest 265 305 28,000  Level Los Angeles Center
11:31AM 35.5992 -114.9114 205° Southwest 264 304 28,000  Level Los Angeles Center
11:32AM 35.5331 -114.9489 205° Southwest 262 302 28,000  Level Los Angeles Center
11:33AM 35.4656 -114.9861 204° Southwest 264 304 28,000  Level Los Angeles Center
11:34AM 35.3994 -115.0253 206° Southwest 264 304 28,000 -180 Level Los Angeles Center
11:35AM 35.3311 -115.0631 204° Southwest 266 306 27,700 -540 Descending Los Angeles Center
11:36AM 35.2606 -115.1036 205° Southwest 274 315 27,000 -720 Descending Los Angeles Center
11:37AM 35.1739 -115.1525 205° Southwest 284 327 26,200 -720 Descending Los Angeles Center
11:38AM 35.1042 -115.1908 204° Southwest 277 319 25,500 -660 Descending Los Angeles Center
11:39AM 35.0317 -115.2197 198° South 274 315 24,900 -540 Descending Los Angeles Center
11:40AM 34.9672 -115.2475 199° South 268 308 24,400 -480 Descending Los Angeles Center
11:41AM 34.8944 -115.2800 200° South 262 302 24,000 -240 Descending Los Angeles Center
11:42AM 34.8253 -115.3108 200° South 262 302 24,000  Level Los Angeles Center
11:43AM 34.7433 -115.3456 199° South 261 300 24,000  Level Los Angeles Center
11:44AM 34.6744 -115.3764 200° South 262 302 24,000  Level Los Angeles Center
11:45AM 34.6003 -115.4094 200° South 264 304 24,000 -180 Level Los Angeles Center
11:46AM 34.5319 -115.4389 200° South 262 302 23,700 -480 Descending Los Angeles Center
11:47AM 34.4669 -115.4664 199° South 267 307 23,100 -780 Descending Los Angeles Center
11:48AM 34.3908 -115.5000 200° South 260 299 22,200 -780 Descending Los Angeles Center
11:49AM 34.3269 -115.5272 199° South 258 297 21,500 -1,020 Descending Los Angeles Center
11:50AM 34.2742 -115.5886 224° Southwest 262 302 20,200 -1,440 Descending Los Angeles Center
11:51AM 34.2108 -115.6575 222° Southwest 258 297 18,600 -1,500 Descending Los Angeles Center
11:52AM 34.1619 -115.7144 224° Southwest 247 284 17,100 -1,440 Descending Los Angeles Center
11:53AM 34.1142 -115.7678 223° Southwest 237 273 15,600 -1,440 Descending Los Angeles Center
11:54AM 34.0594 -115.8114 213° Southwest 240 276 14,100 -1,500 Descending Los Angeles Center
11:55AM 34.0081 -115.8553 215° Southwest 232 267 12,600 -1,500 Descending Los Angeles Center
11:56AM 33.9550 -115.9197 225° Southwest 227 261 11,000 -1,500 Descending Los Angeles Center
11:58AM 33.9122 -115.9728 226° Southwest 223 257 9,500 -1,500 Descending Los Angeles Center
11:59AM 33.8711 -116.0258 227° Southwest 219 252 8,000 -900 Descending Los Angeles Center
12:00PM 33.8311 -116.0772 227° Southwest 219 252 7,700 -300 Descending Los Angeles Center